Pagina principale
METAR-TAF:

METAR-TAF

Aeroporti :

Aeroporto di Bologna-Borgo Panigale

Bologna, Italia

latitudine: 44-32N, longitudine: 011-18E, altezza: 36 m

Osservazione

Il bollettino è stato emesso 26 minuti fa, alle 11:20 UTC
Vento 9 kt da est, variando fra nord-est e est/sud-est
Temperature 25°C
Umidità 44%
Pressione 1026 hPa
Visibilità 10 km o più
nessuna nube inferiore a 1500 m e nessun cumulonembo

METAR: LIPE 191120Z 08009KT 040V110 CAVOK 25/12 Q1026

Ora: 13:46 (11:46 UTC)

Previsione

Il bollettino è stato emesso 46 minuti fa, alle 11:00 UTC
Previsione valida dal 19 alle 12 UTC al 20 alle 12 UTC
Vento 10 kt da est/sud-est
Visibilità 10 km o più
nessuna nube inferiore a 1500 m e nessun cumulonembo
Evoluzione graduale
dal 19 alle 18 UTC al 19 alle 20 UTC
Vento 5 kt da direzioni variabili

TAF: LIPE 191100Z 1912/2012 11010KT CAVOK BECMG 1918/1920 VRB05KT

Osservazioni e previsioni meteorologiche di più di 4000 aeroporti (messaggi METAR e TAF).

Le stazioni disponibili sono rappresentate dai dischi gialli e rossi sulla carta.

Puntare il mouse per vedere il nome della stazione.

Clicca sopra per visualizzare le osservazioni e previsioni meteorologiche.

Per cambiare la mappa : fare clic sui pulsanti verdi con una croce nera per ingrandire, il pulsante verde con un trattino per diminuire, o sulla freccia verde per le mappe adiacenti.


METAR-TAF: